Time;durP1;ratioP1;P1;durP2;ratioP2;P2;SDS_P1;SDS_P2;PMS_P1;PMS_P2;Temp;Humidity;BMP_temperature;BMP_pressure;BME280_temperature;BME280_humidity;BME280_pressure;Samples;Min_cycle;Max_cycle;Signal;HPM_P1;HPM_P2
2023/11/28 00:00:54;;;;;;;2.20;2.00;;;;;;;4.50;76.09;93967.41;5083981;28;20180;-71
2023/11/28 00:03:20;;;;;;;2.20;2.00;;;;;;;4.52;76.25;93965.56;5085463;28;20407;-70
2023/11/28 00:05:45;;;;;;;2.10;1.70;;;;;;;4.59;75.54;93970.28;5086818;28;20699;-71
2023/11/28 00:08:11;;;;;;;1.97;1.87;;;;;;;4.66;74.94;93952.59;5089837;28;20169;-71
2023/11/28 00:10:36;;;;;;;2.03;1.70;;;;;;;4.63;75.04;93951.00;5089922;28;20169;-71
2023/11/28 00:13:02;;;;;;;3.20;1.70;;;;;;;4.66;75.14;93948.22;5089725;28;20699;-70
2023/11/28 00:15:27;;;;;;;2.13;1.93;;;;;;;4.64;75.13;93939.69;5089099;28;20208;-70
2023/11/28 00:17:53;;;;;;;3.50;2.23;;;;;;;4.58;75.92;93940.06;5089329;28;20790;-71
2023/11/28 00:20:19;;;;;;;1.73;1.63;;;;;;;4.61;75.78;93941.66;5089456;28;20184;-71
2023/11/28 00:22:45;;;;;;;1.70;1.60;;;;;;;4.63;76.14;93925.03;5089198;28;20403;-70
2023/11/28 00:25:10;;;;;;;2.13;1.97;;;;;;;4.64;75.42;93936.25;5089266;28;20922;-71
2023/11/28 00:27:35;;;;;;;2.23;1.77;;;;;;;4.64;76.00;93928.47;5089312;28;20169;-72
2023/11/28 00:30:01;;;;;;;1.80;1.70;;;;;;;4.66;75.74;93930.03;5089438;28;20169;-71
2023/11/28 00:32:26;;;;;;;2.00;1.83;;;;;;;4.75;75.34;93930.38;5087912;28;20246;-71
2023/11/28 00:34:52;;;;;;;2.10;1.90;;;;;;;4.64;75.56;93928.47;5068690;28;20193;-71
2023/11/28 00:37:17;;;;;;;2.10;1.70;;;;;;;4.68;75.60;93922.16;5068756;28;20255;-71
2023/11/28 00:39:43;;;;;;;2.07;1.80;;;;;;;4.69;75.52;93921.22;5068556;28;20580;-70
2023/11/28 00:42:08;;;;;;;2.07;1.90;;;;;;;4.66;75.41;93921.41;5069014;28;20578;-71
2023/11/28 00:44:34;;;;;;;2.07;1.37;;;;;;;4.67;75.80;93923.06;5088443;28;20909;-72
2023/11/28 00:46:59;;;;;;;2.60;1.77;;;;;;;4.77;75.90;93919.00;5088989;28;20704;-71
2023/11/28 00:49:24;;;;;;;1.80;1.70;;;;;;;4.67;76.01;93921.31;5092650;28;20215;-71
2023/11/28 00:51:50;;;;;;;1.80;1.70;;;;;;;4.75;75.62;93925.19;5089078;28;20227;-70
2023/11/28 00:54:16;;;;;;;3.57;1.77;;;;;;;4.73;75.63;93927.91;5088946;28;20193;-71
2023/11/28 00:56:42;;;;;;;2.67;1.70;;;;;;;4.70;75.78;93922.91;5089832;28;20169;-71
2023/11/28 00:59:07;;;;;;;3.53;1.40;;;;;;;4.67;76.58;93925.66;5088787;28;20782;-71
2023/11/28 01:01:33;;;;;;;1.63;1.40;;;;;;;4.69;75.09;93916.03;5088533;28;20173;-71
2023/11/28 01:03:58;;;;;;;1.50;1.40;;;;;;;4.76;75.87;93911.28;5087492;28;20727;-71
2023/11/28 01:06:23;;;;;;;3.43;1.80;;;;;;;4.71;75.42;93914.16;5088540;28;20175;-70
2023/11/28 01:08:49;;;;;;;1.60;1.50;;;;;;;4.80;75.54;93920.59;5088883;28;20257;-71
2023/11/28 01:11:15;;;;;;;2.70;1.40;;;;;;;4.77;75.96;93920.75;5088627;28;20173;-71
2023/11/28 01:13:41;;;;;;;1.93;1.63;;;;;;;4.72;75.98;93921.03;5088723;28;20216;-71
2023/11/28 01:16:10;;;;;;;3.63;1.70;;;;;;;4.74;75.83;93929.56;5088043;28;20866;-71
2023/11/28 01:18:35;;;;;;;1.80;1.40;;;;;;;4.73;75.85;93924.47;5087560;28;20725;-70
2023/11/28 01:21:02;;;;;;;1.67;1.30;;;;;;;4.74;75.76;93924.38;5088558;28;20404;-73
2023/11/28 01:23:27;;;;;;;1.40;1.20;;;;;;;4.76;75.92;93916.50;5087829;28;20189;-71
2023/11/28 01:25:53;;;;;;;1.40;1.30;;;;;;;4.78;76.18;93920.66;5087980;28;20412;-70
2023/11/28 01:28:18;;;;;;;3.70;1.40;;;;;;;4.74;76.01;93919.16;5088738;28;20235;-72
2023/11/28 01:30:44;;;;;;;2.27;1.70;;;;;;;4.73;75.60;93922.72;5089257;28;20173;-71
2023/11/28 01:33:09;;;;;;;2.50;1.40;;;;;;;4.80;75.54;93917.97;5080568;28;20702;-71
2023/11/28 01:35:35;;;;;;;1.70;1.60;;;;;;;4.82;75.97;93923.91;5067889;28;20677;-70
2023/11/28 01:38:00;;;;;;;1.20;1.10;;;;;;;4.78;76.12;93917.22;5067946;28;20255;-71
2023/11/28 01:40:27;;;;;;;2.77;1.20;;;;;;;4.77;76.36;93918.16;5067946;28;20213;-71
2023/11/28 01:42:52;;;;;;;1.53;1.43;;;;;;;4.82;75.47;93914.34;5074621;28;20174;-71
2023/11/28 01:45:21;;;;;;;1.63;1.33;;;;;;;4.81;75.16;93909.25;5087802;28;20454;-72
2023/11/28 01:47:48;;;;;;;1.40;1.27;;;;;;;4.77;75.73;93908.63;5089781;28;20189;-71
2023/11/28 01:50:14;;;;;;;1.40;1.30;;;;;;;4.87;75.12;93916.69;5088387;28;20411;-70
2023/11/28 01:52:39;;;;;;;2.27;1.60;;;;;;;4.83;75.12;93905.63;5087659;28;20946;-71
2023/11/28 01:55:05;;;;;;;12.40;1.63;;;;;;;4.80;75.24;93912.78;5087385;28;20200;-70
2023/11/28 01:57:32;;;;;;;2.27;1.63;;;;;;;4.91;75.36;93919.91;5087311;28;20300;-71
2023/11/28 01:59:59;;;;;;;1.87;1.50;;;;;;;4.76;75.98;93912.13;5087533;28;20411;-69
2023/11/28 02:02:26;;;;;;;3.27;1.90;;;;;;;4.78;76.05;93912.88;5087387;28;20415;-72
2023/11/28 02:04:52;;;;;;;3.20;2.00;;;;;;;4.74;75.90;93907.94;5087923;28;20428;-71
2023/11/28 02:07:18;;;;;;;6.40;2.10;;;;;;;4.78;75.81;93902.47;5087275;28;20404;-70
2023/11/28 02:09:43;;;;;;;4.47;2.00;;;;;;;4.85;75.93;93908.13;5088029;28;20852;-71
2023/11/28 02:12:09;;;;;;;4.03;1.70;;;;;;;4.91;75.21;93904.31;5087764;28;20428;-69
2023/11/28 02:14:42;;;;;;;2.20;1.47;;;;;;;4.90;75.66;93911.28;5087520;28;20200;-71
2023/11/28 02:17:07;;;;;;;1.87;1.17;;;;;;;4.90;75.23;93905.25;5087232;28;20192;-70
2023/11/28 02:19:33;;;;;;;3.37;3.07;;;;;;;4.92;75.18;93899.03;5087149;28;20906;-70
2023/11/28 02:21:58;;;;;;;1.43;1.27;;;;;;;4.89;75.54;93901.81;5086544;28;20169;-71
2023/11/28 02:24:25;;;;;;;1.80;1.40;;;;;;;4.81;75.65;93904.88;5086516;28;20193;-70
2023/11/28 02:26:50;;;;;;;1.60;1.00;;;;;;;4.81;75.57;93904.03;5086427;28;20284;-72
2023/11/28 02:29:16;;;;;;;1.40;1.07;;;;;;;4.92;74.94;93888.63;5086886;28;20965;-71
2023/11/28 02:31:41;;;;;;;1.77;1.30;;;;;;;4.93;74.65;93892.06;5086935;28;20174;-71
2023/11/28 02:34:06;;;;;;;3.13;1.50;;;;;;;4.96;74.79;93884.94;5071714;28;20224;-70
2023/11/28 02:36:32;;;;;;;2.80;1.30;;;;;;;4.88;74.68;93889.75;5066755;28;20270;-70
2023/11/28 02:38:57;;;;;;;1.23;1.13;;;;;;;4.80;74.98;93882.44;5067104;28;20178;-72
2023/11/28 02:41:22;;;;;;;1.50;1.40;;;;;;;4.83;74.93;93879.63;5068455;28;20181;-72
2023/11/28 02:43:48;;;;;;;1.20;1.10;;;;;;;4.85;74.74;93877.78;5084551;28;20198;-71
2023/11/28 02:46:14;;;;;;;1.23;1.13;;;;;;;4.92;74.66;93877.41;5094792;28;20218;-71
2023/11/28 02:48:40;;;;;;;1.93;1.20;;;;;;;4.83;75.00;93871.84;5097598;28;20435;-70
2023/11/28 02:51:08;;;;;;;1.43;1.20;;;;;;;4.83;74.91;93865.81;5103384;28;20169;-72
2023/11/28 02:53:33;;;;;;;1.80;1.20;;;;;;;4.87;74.86;93872.50;5096014;28;20439;-71
2023/11/28 02:55:59;;;;;;;3.10;1.27;;;;;;;4.81;74.97;93868.50;5086547;28;20460;-71
2023/11/28 02:58:24;;;;;;;1.40;1.30;;;;;;;4.85;74.64;93872.59;5086034;28;20196;-71
2023/11/28 03:00:49;;;;;;;1.63;1.20;;;;;;;4.90;74.69;93868.88;5086547;28;20642;-71
2023/11/28 03:03:15;;;;;;;1.50;1.10;;;;;;;4.91;74.57;93867.94;5086311;28;20185;-69
2023/11/28 03:05:40;;;;;;;2.23;1.00;;;;;;;4.95;74.87;93861.63;5086428;28;20205;-71
2023/11/28 03:08:06;;;;;;;1.23;1.13;;;;;;;4.83;75.71;93868.41;5086667;28;20166;-71
2023/11/28 03:10:31;;;;;;;1.43;1.33;;;;;;;4.85;75.97;93859.59;5086439;28;20581;-71
2023/11/28 03:12:57;;;;;;;1.50;1.40;;;;;;;4.96;74.43;93851.13;5086196;28;20407;-71
2023/11/28 03:15:23;;;;;;;1.73;1.63;;;;;;;4.90;74.97;93855.88;5085713;28;20228;-68
2023/11/28 03:17:48;;;;;;;1.50;1.40;;;;;;;5.00;74.98;93844.78;5086502;28;20209;-71
2023/11/28 03:20:14;;;;;;;2.40;1.20;;;;;;;5.00;74.89;93847.41;5086531;28;20275;-71
2023/11/28 03:22:40;;;;;;;1.37;1.27;;;;;;;4.93;75.13;93837.50;5086472;28;20166;-70
2023/11/28 03:25:08;;;;;;;1.33;1.23;;;;;;;4.97;75.03;93833.78;5085742;28;20434;-72
2023/11/28 03:27:34;;;;;;;2.03;1.20;;;;;;;4.99;74.94;93840.53;5085998;28;20519;-70
2023/11/28 03:29:59;;;;;;;1.77;1.50;;;;;;;4.91;75.09;93841.94;5086196;28;20918;-71
2023/11/28 03:32:24;;;;;;;3.10;1.47;;;;;;;4.96;74.97;93834.69;5084893;28;20651;-70
2023/11/28 03:34:50;;;;;;;1.60;1.50;;;;;;;5.06;75.24;93828.81;5065956;28;20206;-72
2023/11/28 03:37:15;;;;;;;1.67;1.33;;;;;;;4.92;75.81;93826.25;5065620;28;20652;-71
2023/11/28 03:39:44;;;;;;;1.90;1.70;;;;;;;4.90;76.06;93822.09;5065546;28;20178;-71
2023/11/28 03:42:10;;;;;;;2.57;1.73;;;;;;;5.01;75.79;93828.28;5066033;28;20189;-71
2023/11/28 03:44:36;;;;;;;1.37;1.27;;;;;;;4.93;76.18;93827.09;5085604;28;20439;-71
2023/11/28 03:47:02;;;;;;;1.57;1.47;;;;;;;4.91;76.16;93816.78;5085752;28;20233;-70
2023/11/28 03:49:27;;;;;;;2.07;1.37;;;;;;;5.00;76.08;93813.59;5085602;28;20415;-71
2023/11/28 03:51:53;;;;;;;1.50;1.40;;;;;;;4.92;76.08;93805.47;5086654;28;20243;-72
2023/11/28 03:54:19;;;;;;;1.87;1.63;;;;;;;5.05;76.41;93808.13;5086275;28;20277;-71
2023/11/28 03:56:45;;;;;;;2.27;1.77;;;;;;;5.08;76.08;93813.13;5085762;28;20547;-71
2023/11/28 03:59:10;;;;;;;142.50;12.40;;;;;;;4.99;75.90;93805.94;5085906;28;20490;-70
2023/11/28 04:01:36;;;;;;;3.90;2.53;;;;;;;5.04;76.57;93803.88;5086161;28;20177;-72
2023/11/28 04:04:01;;;;;;;2.73;1.90;;;;;;;4.99;77.03;93803.31;5085427;28;20200;-71
2023/11/28 04:06:27;;;;;;;2.37;2.07;;;;;;;5.02;76.60;93803.13;5085485;28;20201;-71
2023/11/28 04:08:53;;;;;;;2.00;1.80;;;;;;;5.04;76.67;93796.06;5085751;28;20162;-71
2023/11/28 04:11:19;;;;;;;2.20;2.00;;;;;;;5.03;77.10;93792.63;5085429;28;20173;-70
2023/11/28 04:13:44;;;;;;;2.40;2.20;;;;;;;5.09;77.33;93783.59;5085485;28;20276;-71
2023/11/28 04:16:18;;;;;;;3.10;2.80;;;;;;;5.11;76.61;93773.94;5085377;28;20279;-72
2023/11/28 04:18:46;;;;;;;4.73;2.40;;;;;;;4.98;77.18;93776.47;5085649;28;20194;-71
2023/11/28 04:21:15;;;;;;;3.93;2.20;;;;;;;5.10;77.12;93774.84;5085430;28;20403;-71
2023/11/28 04:23:42;;;;;;;2.87;2.57;;;;;;;5.15;76.98;93761.56;5085382;28;20504;-71
2023/11/28 04:26:08;;;;;;;2.80;2.50;;;;;;;5.14;77.37;93768.53;5085159;28;20415;-71
2023/11/28 04:28:34;;;;;;;2.83;2.57;;;;;;;5.06;77.72;93763.00;5085513;28;20438;-71
2023/11/28 04:30:59;;;;;;;3.30;2.90;;;;;;;5.10;77.24;93764.47;5085496;28;20172;-70
2023/11/28 04:33:25;;;;;;;3.40;2.70;;;;;;;5.04;77.93;93764.88;5076470;28;20174;-71
2023/11/28 04:35:50;;;;;;;2.30;2.10;;;;;;;5.08;78.05;93761.97;5068137;28;20167;-71
2023/11/28 04:38:16;;;;;;;3.60;2.60;;;;;;;5.14;77.53;93750.34;5065004;28;20612;-71
2023/11/28 04:40:41;;;;;;;7.63;2.80;;;;;;;5.07;78.22;93752.50;5064988;28;20170;-71
2023/11/28 04:43:07;;;;;;;3.10;2.60;;;;;;;5.23;77.59;93749.75;5073608;28;20207;-70
2023/11/28 04:45:33;;;;;;;2.47;2.17;;;;;;;5.23;77.39;93754.94;5084822;28;20205;-70
2023/11/28 04:47:59;;;;;;;3.20;2.20;;;;;;;5.13;78.18;93753.06;5085416;28;20228;-69
2023/11/28 04:50:24;;;;;;;2.43;2.17;;;;;;;5.19;77.73;93750.88;5084965;28;20419;-71
2023/11/28 04:52:50;;;;;;;2.17;1.97;;;;;;;5.14;77.84;93755.53;5086670;28;20821;-71
2023/11/28 04:55:15;;;;;;;2.10;1.90;;;;;;;5.20;77.66;93755.16;5088923;28;20272;-71
2023/11/28 04:57:41;;;;;;;1.33;1.23;;;;;;;5.23;77.23;93749.75;5088705;28;20202;-71
2023/11/28 05:00:08;;;;;;;1.90;1.80;;;;;;;5.30;76.68;93755.38;5088731;28;20593;-70
2023/11/28 05:02:35;;;;;;;2.20;1.53;;;;;;;5.29;77.12;93753.69;5088936;28;20186;-71
2023/11/28 05:05:00;;;;;;;1.97;1.77;;;;;;;5.29;77.08;93751.09;5089273;28;20443;-71
2023/11/28 05:07:26;;;;;;;1.70;1.60;;;;;;;5.37;76.56;93755.81;5088953;28;20434;-71
2023/11/28 05:09:51;;;;;;;1.23;1.13;;;;;;;5.23;77.39;93760.13;5074276;28;20285;-71
2023/11/28 05:12:17;;;;;;;3.00;1.40;;;;;;;5.20;77.64;93765.53;5063945;28;20190;-69
2023/11/28 05:14:42;;;;;;;3.13;1.67;;;;;;;5.32;76.74;93763.91;5063299;28;20272;-71
2023/11/28 05:17:08;;;;;;;1.83;1.67;;;;;;;5.30;76.76;93761.41;5066184;28;20816;-70
2023/11/28 05:19:34;;;;;;;1.93;1.73;;;;;;;5.24;77.02;93760.97;5061042;28;20183;-69
2023/11/28 05:21:59;;;;;;;1.60;1.50;;;;;;;5.25;77.61;93766.06;5055349;28;20482;-69
2023/11/28 05:24:25;;;;;;;1.50;1.40;;;;;;;5.25;77.05;93766.06;5044807;28;20304;-70
2023/11/28 05:26:50;;;;;;;2.00;1.77;;;;;;;5.27;77.07;93766.81;5045240;28;20174;-67
2023/11/28 05:29:15;;;;;;;1.90;1.60;;;;;;;5.25;77.12;93778.25;5046694;28;20182;-69
2023/11/28 05:31:41;;;;;;;3.90;1.93;;;;;;;5.38;76.66;93775.66;5046679;28;20186;-68
2023/11/28 05:34:06;;;;;;;2.20;1.50;;;;;;;5.25;77.12;93773.88;5061871;28;20277;-67
2023/11/28 05:36:32;;;;;;;1.77;1.47;;;;;;;5.23;77.49;93780.13;5061146;28;20178;-68
2023/11/28 05:38:57;;;;;;;2.20;1.70;;;;;;;5.27;77.78;93776.38;5046036;28;20195;-69
2023/11/28 05:41:23;;;;;;;3.60;1.50;;;;;;;5.27;76.96;93779.00;5045899;28;20236;-68
2023/11/28 05:43:50;;;;;;;1.83;1.73;;;;;;;5.27;77.41;93779.81;5045716;28;20214;-71
2023/11/28 05:46:15;;;;;;;3.60;1.90;;;;;;;5.25;77.46;93788.66;5056843;28;20455;-70
2023/11/28 05:48:40;;;;;;;3.30;1.73;;;;;;;5.17;77.94;93793.50;5055614;28;20911;-69
2023/11/28 05:51:08;;;;;;;1.63;1.53;;;;;;;5.23;77.36;93796.53;5052606;28;20181;-67
2023/11/28 05:53:34;;;;;;;1.70;1.60;;;;;;;5.23;77.49;93793.94;5066949;28;20232;-69
2023/11/28 05:56:00;;;;;;;1.43;1.33;;;;;;;5.23;77.82;93806.94;5061328;28;20508;-69
2023/11/28 05:58:26;;;;;;;1.90;1.37;;;;;;;5.25;77.62;93804.25;5062070;28;20555;-67
2023/11/28 06:00:51;;;;;;;4.27;1.53;;;;;;;5.20;78.01;93807.16;5058263;28;20182;-69
2023/11/28 06:03:17;;;;;;;1.60;1.40;;;;;;;5.23;77.75;93816.50;5057904;28;20241;-70
2023/11/28 06:05:43;;;;;;;1.60;1.50;;;;;;;5.27;77.49;93823.19;5058712;28;20185;-69
2023/11/28 06:08:08;;;;;;;1.33;1.13;;;;;;;5.24;77.49;93831.16;5055083;28;20183;-67
2023/11/28 06:10:34;;;;;;;1.47;1.37;;;;;;;5.26;77.63;93837.94;5055121;28;20846;-68
2023/11/28 06:12:59;;;;;;;1.40;1.20;;;;;;;5.29;77.72;93847.31;5055959;28;20179;-68
2023/11/28 06:15:26;;;;;;;1.90;1.47;;;;;;;5.29;77.48;93848.16;5044564;28;20279;-68
2023/11/28 06:17:51;;;;;;;1.30;1.10;;;;;;;5.30;77.31;93848.97;5062366;28;20297;-69
2023/11/28 06:20:17;;;;;;;1.43;1.10;;;;;;;5.24;77.47;93846.75;5063121;28;20484;-70
2023/11/28 06:22:45;;;;;;;1.30;1.10;;;;;;;5.28;77.93;93853.44;5066417;28;20586;-67
2023/11/28 06:25:10;;;;;;;2.40;1.40;;;;;;;5.30;77.94;93857.63;5065608;28;20305;-69
2023/11/28 06:27:36;;;;;;;1.40;1.30;;;;;;;5.23;77.97;93853.75;5047673;28;20529;-70
2023/11/28 06:30:04;;;;;;;2.57;1.20;;;;;;;5.25;78.04;93857.06;5045778;28;20174;-70
2023/11/28 06:32:29;;;;;;;1.30;1.20;;;;;;;5.23;78.00;93858.13;5046972;28;20561;-69
2023/11/28 06:34:55;;;;;;;2.70;1.53;;;;;;;5.20;78.45;93860.91;5065123;28;20428;-70
2023/11/28 06:37:20;;;;;;;2.83;1.17;;;;;;;5.28;78.38;93859.47;5068300;28;20289;-69
2023/11/28 06:39:47;;;;;;;3.37;1.50;;;;;;;5.30;78.08;93864.59;5065577;28;21460;-68
2023/11/28 06:42:13;;;;;;;7.40;1.80;;;;;;;5.24;78.31;93871.03;5067625;28;20549;-70
2023/11/28 06:44:39;;;;;;;1.30;1.20;;;;;;;5.26;78.18;93873.50;5065414;28;20435;-70
2023/11/28 06:47:04;;;;;;;7.83;1.47;;;;;;;5.26;77.90;93881.31;5068334;28;20404;-69
2023/11/28 06:49:31;;;;;;;1.93;1.40;;;;;;;5.20;79.03;93874.75;5065768;28;20182;-68
2023/11/28 06:51:57;;;;;;;5.07;1.57;;;;;;;5.26;78.58;93889.09;5063426;28;20182;-72
2023/11/28 06:54:22;;;;;;;1.53;1.13;;;;;;;5.21;78.65;93889.41;5068960;28;20447;-70
2023/11/28 06:56:48;;;;;;;1.90;1.30;;;;;;;5.23;78.50;93889.31;5071294;28;20182;-67
2023/11/28 06:59:13;;;;;;;3.93;1.30;;;;;;;5.22;78.99;93895.44;5064943;28;20222;-70
2023/11/28 07:01:42;;;;;;;2.17;1.00;;;;;;;5.29;78.56;93897.56;5050547;28;20178;-69
2023/11/28 07:04:07;;;;;;;2.80;1.60;;;;;;;5.25;78.53;93901.28;5044091;28;20202;-67
2023/11/28 07:06:33;;;;;;;1.60;1.37;;;;;;;5.29;78.38;93894.97;5044450;28;20491;-69
2023/11/28 07:08:59;;;;;;;1.63;1.20;;;;;;;5.21;78.18;93905.00;5044375;28;20275;-68
2023/11/28 07:11:24;;;;;;;2.40;1.30;;;;;;;5.34;77.92;93901.63;5045368;28;20618;-69
2023/11/28 07:13:50;;;;;;;1.93;1.40;;;;;;;5.29;77.70;93905.38;5044701;28;20252;-70
2023/11/28 07:16:17;;;;;;;2.40;1.20;;;;;;;5.36;78.06;93916.19;5055101;28;20261;-69
2023/11/28 07:18:42;;;;;;;1.40;1.30;;;;;;;5.30;78.12;93916.59;5047301;28;20445;-70
2023/11/28 07:21:08;;;;;;;1.90;1.50;;;;;;;5.28;78.00;93919.28;5058970;28;20409;-71
2023/11/28 07:23:35;;;;;;;2.53;1.20;;;;;;;5.26;77.90;93931.53;5066329;28;20850;-72
2023/11/28 07:26:00;;;;;;;1.50;1.10;;;;;;;5.25;78.23;93935.09;5066068;28;20633;-70
2023/11/28 07:28:26;;;;;;;1.60;1.23;;;;;;;5.29;77.75;93931.38;5061749;28;20421;-69
2023/11/28 07:30:52;;;;;;;2.43;1.43;;;;;;;5.30;77.53;93946.03;5056011;28;20709;-71
2023/11/28 07:33:18;;;;;;;2.23;1.60;;;;;;;5.22;78.30;93956.09;5058524;28;20179;-70
2023/11/28 07:35:44;;;;;;;1.80;1.47;;;;;;;5.35;78.00;93960.50;5062956;28;20448;-71
2023/11/28 07:38:09;;;;;;;2.43;1.90;;;;;;;5.26;78.69;93973.13;5065231;28;20503;-69
2023/11/28 07:40:36;;;;;;;3.00;1.80;;;;;;;5.29;78.97;93978.19;5060595;28;20206;-70
2023/11/28 07:43:03;;;;;;;4.03;1.50;;;;;;;5.25;79.49;93994.88;5056825;28;20286;-70
2023/11/28 07:45:29;;;;;;;3.00;2.07;;;;;;;5.41;77.76;93991.31;5045800;28;20512;-69
2023/11/28 07:47:56;;;;;;;2.23;1.20;;;;;;;5.28;76.57;94005.09;5062686;28;20934;-71
2023/11/28 07:50:21;;;;;;;3.27;1.50;;;;;;;5.42;75.40;94000.81;5066487;28;20676;-70
2023/11/28 07:52:47;;;;;;;1.83;1.20;;;;;;;5.37;74.72;94006.28;5065938;28;20419;-71
2023/11/28 07:55:12;;;;;;;2.73;1.80;;;;;;;5.25;74.68;94013.09;5067490;28;20205;-71
2023/11/28 07:57:38;;;;;;;3.13;1.60;;;;;;;5.22;75.45;94018.47;5052856;28;20206;-72
2023/11/28 08:00:07;;;;;;;2.30;1.83;;;;;;;5.23;75.38;94021.91;5053733;28;20174;-71
2023/11/28 08:02:33;;;;;;;2.33;1.40;;;;;;;5.20;74.63;94025.53;5048482;28;20194;-71
2023/11/28 08:04:58;;;;;;;8.80;2.30;;;;;;;5.21;75.20;94027.19;5059763;28;20494;-71
2023/11/28 08:07:23;;;;;;;10.97;2.10;;;;;;;5.08;74.58;94032.31;5057131;28;20220;-70
2023/11/28 08:09:49;;;;;;;11.43;2.53;;;;;;;5.24;74.58;94037.44;5059482;28;20201;-72
2023/11/28 08:12:14;;;;;;;6.27;1.53;;;;;;;5.22;74.34;94034.09;5076441;28;20170;-71
2023/11/28 08:14:40;;;;;;;4.00;1.53;;;;;;;5.23;73.97;94040.94;5076019;28;20216;-70
2023/11/28 08:17:05;;;;;;;2.07;1.40;;;;;;;5.18;74.91;94036.97;5073935;28;20225;-70
2023/11/28 08:19:32;;;;;;;3.53;2.03;;;;;;;5.27;74.33;94045.03;5065671;28;20170;-71
2023/11/28 08:21:58;;;;;;;3.00;1.90;;;;;;;5.37;72.92;94054.88;5066658;28;20174;-71
2023/11/28 08:24:23;;;;;;;2.10;1.10;;;;;;;5.34;73.05;94063.72;5055759;28;20440;-71
2023/11/28 08:26:49;;;;;;;5.17;1.70;;;;;;;5.20;73.85;94074.94;5082978;28;20174;-69
2023/11/28 08:29:14;;;;;;;2.00;1.10;;;;;;;5.04;74.09;94077.63;5090434;28;20213;-70
2023/11/28 08:31:39;;;;;;;1.10;0.80;;;;;;;5.14;72.01;94079.66;5090859;28;20234;-69
2023/11/28 08:34:05;;;;;;;2.50;1.47;;;;;;;4.90;72.31;94089.75;5074495;28;20189;-71
2023/11/28 08:36:30;;;;;;;1.60;1.23;;;;;;;5.02;71.04;94087.25;5068937;28;20167;-70
2023/11/28 08:38:55;;;;;;;1.20;0.80;;;;;;;4.73;71.03;94099.38;5081703;28;20204;-70
2023/11/28 08:41:21;;;;;;;1.50;1.20;;;;;;;4.87;70.72;94119.38;5073300;28;20243;-70
2023/11/28 08:43:47;;;;;;;1.47;1.00;;;;;;;4.70;70.62;94104.75;5080475;28;20202;-69
2023/11/28 08:46:17;;;;;;;1.20;0.90;;;;;;;4.74;70.77;94115.78;5069106;28;20469;-71
2023/11/28 08:48:42;;;;;;;2.03;1.00;;;;;;;4.68;71.46;94122.19;5068802;28;20223;-71
2023/11/28 08:51:08;;;;;;;3.13;1.53;;;;;;;4.82;70.56;94139.59;5068910;28;20430;-69
2023/11/28 08:53:33;;;;;;;1.83;1.30;;;;;;;4.66;69.85;94143.06;5068792;28;20190;-70
2023/11/28 08:55:59;;;;;;;1.53;1.43;;;;;;;4.59;70.47;94159.06;5076463;28;20238;-71
2023/11/28 08:58:24;;;;;;;1.73;1.40;;;;;;;4.63;69.65;94168.34;5051759;28;20723;-70
2023/11/28 09:00:53;;;;;;;5.20;1.73;;;;;;;4.68;69.12;94176.75;5048679;28;20186;-68
2023/11/28 09:03:20;;;;;;;5.90;1.97;;;;;;;4.77;69.39;94177.97;5048569;28;20185;-69
2023/11/28 09:05:46;;;;;;;4.77;1.77;;;;;;;4.74;69.06;94183.34;5048186;28;20458;-69
2023/11/28 09:08:12;;;;;;;2.53;1.40;;;;;;;4.76;68.31;94178.91;5048552;28;20414;-69
2023/11/28 09:10:37;;;;;;;2.70;1.20;;;;;;;4.58;68.60;94185.97;5048464;28;20194;-69
2023/11/28 09:13:03;;;;;;;1.77;1.20;;;;;;;4.49;69.21;94205.50;5048866;28;20739;-69
2023/11/28 09:15:28;;;;;;;1.70;1.37;;;;;;;4.57;68.33;94207.69;5046319;28;20749;-71
2023/11/28 09:17:53;;;;;;;1.30;1.20;;;;;;;4.43;68.68;94216.22;5048478;28;20202;-71
2023/11/28 09:20:19;;;;;;;1.73;1.20;;;;;;;4.60;66.92;94210.91;5048579;28;20166;-68
2023/11/28 09:22:44;;;;;;;2.00;1.10;;;;;;;4.54;67.35;94213.06;5051095;28;20205;-71
2023/11/28 09:25:10;;;;;;;1.40;1.10;;;;;;;4.38;67.42;94226.88;5052037;28;20280;-70
2023/11/28 09:27:35;;;;;;;1.20;1.10;;;;;;;4.43;68.28;94229.22;5053852;28;20225;-70
2023/11/28 09:30:01;;;;;;;2.10;1.60;;;;;;;4.41;68.75;94239.66;5058102;28;20166;-70
2023/11/28 09:32:27;;;;;;;5.87;1.70;;;;;;;4.57;66.97;94244.88;5062782;28;20251;-71
2023/11/28 09:34:53;;;;;;;3.43;1.30;;;;;;;4.49;67.56;94243.59;5059027;28;20199;-70
2023/11/28 09:37:18;;;;;;;1.60;1.37;;;;;;;4.36;69.26;94254.66;5056244;28;20459;-70
2023/11/28 09:39:43;;;;;;;4.40;1.93;;;;;;;4.44;68.16;94257.69;5057832;28;20175;-70
2023/11/28 09:42:12;;;;;;;1.37;1.27;;;;;;;4.48;67.60;94257.53;5058341;28;20183;-70
2023/11/28 09:44:42;;;;;;;4.70;2.00;;;;;;;4.51;68.37;94267.75;5056657;28;20183;-70
2023/11/28 09:47:10;;;;;;;2.10;1.90;;;;;;;4.43;68.51;94276.78;5048381;28;20516;-70
2023/11/28 09:49:43;;;;;;;3.83;1.50;;;;;;;4.46;68.36;94288.75;5052130;28;20454;-71
2023/11/28 09:52:13;;;;;;;1.50;1.40;;;;;;;4.42;66.67;94279.50;5050722;28;20417;-69
2023/11/28 09:54:39;;;;;;;5.30;1.80;;;;;;;4.34;67.80;94286.84;5051212;28;20810;-70
2023/11/28 09:57:10;;;;;;;1.40;1.30;;;;;;;4.47;66.87;94298.25;5052956;28;20504;-70
2023/11/28 09:59:40;;;;;;;1.70;1.40;;;;;;;4.47;67.21;94300.00;5051387;28;20183;-71
2023/11/28 10:02:07;;;;;;;2.77;1.40;;;;;;;4.23;67.38;94301.22;5067568;28;20523;-69
2023/11/28 10:04:33;;;;;;;5.10;1.70;;;;;;;4.24;68.42;94307.25;5067469;28;20432;-70
2023/11/28 10:07:04;;;;;;;3.97;2.07;;;;;;;4.28;69.22;94316.56;5067429;28;20439;-69
2023/11/28 10:09:31;;;;;;;3.90;1.67;;;;;;;4.50;68.07;94323.22;5068183;28;20417;-69
2023/11/28 10:11:59;;;;;;;3.17;1.57;;;;;;;4.34;68.68;94324.00;5067530;28;20782;-70
2023/11/28 10:14:25;;;;;;;1.47;1.37;;;;;;;4.32;68.87;94327.63;5067627;28;20448;-68
2023/11/28 10:16:51;;;;;;;2.70;1.50;;;;;;;4.31;67.90;94325.94;5067306;28;21156;-70
2023/11/28 10:19:17;;;;;;;10.17;2.07;;;;;;;4.21;68.55;94330.78;5067241;28;20182;-69
2023/11/28 10:21:44;;;;;;;3.20;1.50;;;;;;;4.25;68.00;94342.66;5067489;28;20174;-74
2023/11/28 10:24:09;;;;;;;1.80;1.60;;;;;;;4.13;68.96;94344.16;5067126;28;21000;-71
2023/11/28 10:26:37;;;;;;;4.40;2.23;;;;;;;4.12;69.71;94346.84;5066857;28;20409;-69
2023/11/28 10:29:05;;;;;;;3.13;1.93;;;;;;;4.13;70.00;94353.69;5067413;28;20665;-71
2023/11/28 10:31:35;;;;;;;2.50;2.00;;;;;;;3.87;70.13;94363.66;5064931;28;20412;-70
2023/11/28 10:34:01;;;;;;;1.80;1.60;;;;;;;4.06;70.52;94368.75;5061205;28;20428;-70
2023/11/28 10:36:27;;;;;;;4.93;1.63;;;;;;;4.06;70.11;94379.13;5067023;28;20412;-70
2023/11/28 10:38:53;;;;;;;2.20;2.00;;;;;;;4.27;70.35;94378.94;5067042;28;20226;-71
2023/11/28 10:41:18;;;;;;;3.77;1.70;;;;;;;4.29;69.34;94384.91;5065582;28;20562;-70
2023/11/28 10:43:45;;;;;;;3.60;2.40;;;;;;;4.14;69.13;94394.34;5066773;28;20523;-70
2023/11/28 10:46:15;;;;;;;5.80;2.30;;;;;;;4.11;70.11;94397.06;5066386;28;20178;-70
2023/11/28 10:48:40;;;;;;;6.53;2.23;;;;;;;4.08;70.35;94405.00;5067346;28;20911;-70
2023/11/28 10:51:09;;;;;;;4.00;2.00;;;;;;;4.22;69.69;94403.38;5069589;28;20413;-70
2023/11/28 10:53:35;;;;;;;2.07;1.80;;;;;;;4.11;70.55;94407.44;5068334;28;20891;-71
2023/11/28 10:56:02;;;;;;;1.97;1.70;;;;;;;4.17;69.70;94420.13;5068051;28;20442;-71
2023/11/28 10:58:29;;;;;;;1.93;1.53;;;;;;;4.07;70.01;94413.72;5068819;28;20459;-70
2023/11/28 11:01:01;;;;;;;6.27;2.80;;;;;;;4.06;70.16;94420.66;5068902;28;20404;-70
2023/11/28 11:03:27;;;;;;;4.87;1.57;;;;;;;4.12;69.61;94432.50;5067464;28;20478;-71
2023/11/28 11:05:53;;;;;;;2.43;1.33;;;;;;;4.09;70.27;94430.06;5065893;28;21363;-70
2023/11/28 11:08:19;;;;;;;3.30;1.80;;;;;;;4.12;70.69;94429.91;5065940;28;20239;-71
2023/11/28 11:10:45;;;;;;;1.87;1.67;;;;;;;4.25;70.50;94438.72;5075542;28;20201;-69
2023/11/28 11:13:26;;;;;;;4.17;1.90;;;;;;;4.16;68.72;94432.28;5077667;28;20523;-71
2023/11/28 11:16:15;;;;;;;1.47;1.33;;;;;;;4.00;70.59;94439.97;5044250;28;20233;-70
2023/11/28 11:18:44;;;;;;;4.27;1.57;;;;;;;4.01;70.37;94453.78;5045780;28;20581;-71
2023/11/28 11:21:32;;;;;;;1.87;1.20;;;;;;;4.17;68.78;94453.88;5046415;28;20413;-69
2023/11/28 11:24:00;;;;;;;2.37;1.43;;;;;;;4.26;68.29;94462.97;5046502;28;20820;-70
2023/11/28 11:26:45;;;;;;;3.67;1.87;;;;;;;4.17;68.46;94474.63;5046189;28;20417;-69
2023/11/28 11:29:25;;;;;;;3.50;1.70;;;;;;;4.12;68.82;94474.03;5047062;28;20413;-70
2023/11/28 11:32:01;;;;;;;4.33;1.67;;;;;;;4.13;67.67;94493.88;5049971;28;21142;-69
2023/11/28 11:34:34;;;;;;;1.30;1.20;;;;;;;4.02;67.65;94495.25;5048206;28;20478;-68
2023/11/28 11:37:06;;;;;;;2.07;1.50;;;;;;;3.96;67.90;94498.13;5045716;28;20901;-68